Home > Products > Valid Products > TAF

000
FTUS44 KEWX 231100 RRA
TAFDRT
TAF
KDRT 231147Z 2312/2412 VRB03KT 4SM BR BKN060
      TEMPO 2312/2314 2SM BR FEW050
     FM231600 13006KT P6SM BKN050
     FM240600 10005KT P6SM SCT060=



000
FTUS44 KEWX 231100 RRA
TAFSAT
TAF
KSAT 231147Z 2312/2418 VRB03KT P6SM SCT060 BKN100
     FM232000 09005KT P6SM BKN040 BKN150
     FM240400 VRB03KT P6SM FEW120=



000
FTUS44 KEWX 231100 RRA
TAFAUS
TAF
KAUS 231147Z 2312/2418 VRB03KT P6SM FEW035 BKN060
      TEMPO 2312/2314 4SM BR
     FM232000 05005KT P6SM SCT050 SCT120
     FM240200 VRB03KT P6SM FEW120=



000
FTUS44 KEWX 230600 AAA
TAFDRT
TAF AMD
KDRT 230639Z 2307/2406 VRB03KT 3SM BR SCT050
      TEMPO 2307/2309 1SM BR
     FM230900 VRB03KT 4SM BR BKN060
     FM231100 11004KT 6SM BR OVC015
     FM231700 14006KT P6SM BKN025
     FM231800 16006KT P6SM OVC035=



000
FTUS44 KEWX 230500
TAFSAT
TAF
KSAT 230527Z 2306/2412 VRB03KT P6SM SCT060 BKN200
     FM231200 07003KT P6SM FEW035 OVC060
     FM232000 11005KT P6SM BKN040 BKN200=



000
FTUS44 KEWX 230500
TAFAUS
TAF
KAUS 230527Z 2306/2412 VRB03KT P6SM SCT060 BKN250
     FM231200 06005KT P6SM FEW035 OVC060
     FM240200 13003KT P6SM SCT040 SCT250=



000
FTUS44 KEWX 230500
TAFDRT
TAF
KDRT 230527Z 2306/2406 11004KT 5SM BR OVC050
     FM231100 11004KT 4SM BR OVC015
     FM231700 14006KT P6SM BKN025
     FM231800 16006KT P6SM OVC035=



000
FTUS44 KEWX 222300
TAFDRT
TAF
KDRT 222320Z 2300/2324 VRB04KT P6SM -RA FEW090 BKN120
     FM230500 11004KT 5SM BR OVC050
     FM231100 11004KT 4SM BR OVC015
     FM231700 14008KT P6SM BKN025=



000
FTUS44 KEWX 222300
TAFSAT
TAF
KSAT 222320Z 2300/2406 12005KT P6SM FEW040 BKN110
     FM230600 VRB03KT P6SM FEW035 BKN200
     FM231800 13006KT P6SM SCT040 SCT250=



000
FTUS44 KEWX 222300
TAFAUS
TAF
KAUS 222320Z 2300/2406 10004KT P6SM FEW040 SCT250
     FM230600 VRB03KT P6SM FEW035 SCT250
     FM231800 09006KT P6SM SCT040 SCT250=



000
FTUS44 KEWX 222100 AAC
TAFDRT
TAF AMD
KDRT 222138Z 2222/2318 VRB03KT P6SM OVC080
      TEMPO 2222/2223 3SM -RA BR
     FM230100 09006KT P6SM BKN070 BKN200
     FM231100 09006KT P6SM BKN015
     FM231700 14008KT P6SM BKN025=



000
FTUS44 KEWX 222000 AAB
TAFDRT
TAF AMD
KDRT 222043Z 2221/2318 13008KT P6SM FEW030 OVC080
      TEMPO 2221/2223 2SM -RA BR
     FM230100 09006KT P6SM BKN070 BKN200
     FM231100 09006KT P6SM BKN015
     FM231700 14008KT P6SM BKN025=



000
FTUS44 KEWX 221900 CCA
TAFDRT
TAF COR
KDRT 221925Z 2219/2318 13008KT P6SM FEW030 OVC080
      TEMPO 2219/2223 -RA
     FM230100 09006KT P6SM BKN070 BKN200
     FM231100 09006KT P6SM BKN015
     FM231700 14008KT P6SM BKN025=



000
FTUS44 KEWX 221900 AAA
TAFDRT
TAF AMD
KDRT 221915Z 2219/2318 13008KT P6SM FEW030 OVC080
      TEMPO 2219/2223 -RA BKN030
     FM230100 09006KT P6SM BKN070 BKN200
     FM231100 09006KT P6SM BKN015
     FM231700 14008KT P6SM BKN025=



000
FTUS44 KEWX 221700
TAFDRT
TAF
KDRT 221729Z 2218/2318 13008KT P6SM FEW030 OVC080
     FM230100 09006KT P6SM BKN070 BKN200
     FM231100 09006KT P6SM BKN015
     FM231700 14008KT P6SM BKN025=



000
FTUS44 KEWX 221700
TAFAUS
TAF
KAUS 221729Z 2218/2324 10007KT P6SM SCT150 SCT250
     FM230100 VRB03KT P6SM FEW035 BKN120
     FM231800 08006KT P6SM SCT250=



000
FTUS44 KEWX 221700
TAFSAT
TAF
KSAT 221729Z 2218/2324 11011KT P6SM FEW050 BKN150
     FM230500 VRB03KT P6SM FEW035 BKN120
     FM231600 11009KT P6SM SCT250=



000
FTUS44 KEWX 221700
TAFSAT
TAF
KSAT 221729Z 2218/2324 11011KT P6SM FEW050 BKN150
     FM230500 VRB03KT P6SM FEW035 BKN120
     FM231600 11009KT P6SM SCT250=



000
FTUS44 KEWX 221700
TAFAUS
TAF
KAUS 221729Z 2218/2324 10007KT P6SM SCT150 SCT250
     FM230100 VRB03KT P6SM FEW035 BKN120
     FM231800 08006KT P6SM SCT250=



000
FTUS44 KEWX 221700
TAFDRT
TAF
KDRT 221729Z 2218/2318 13008KT P6SM FEW030 OVC080
     FM230100 09006KT P6SM BKN070 BKN200
     FM231100 09006KT P6SM BKN015
     FM231700 14008KT P6SM BKN025=



000
FTUS44 KEWX 221200 AAA
TAFDRT
TAF AMD
KDRT 221246Z 2213/2312 09007KT P6SM FEW025 BKN060
     FM221600 13008KT P6SM BKN060 BKN150
     FM230100 09006KT P6SM BKN070 BKN200=



000
FTUS44 KEWX 221100
TAFSAT
TAF
KSAT 221136Z 2212/2318 VRB04KT P6SM FEW025 BKN150
     FM221900 11007KT P6SM FEW040 BKN150
     FM230600 VRB03KT P6SM FEW035 BKN120=



000
FTUS44 KEWX 221100
TAFDRT
TAF
KDRT 221136Z 2212/2312 09007KT 6SM BR SCT025 BKN060
      TEMPO 2212/2214 5SM BR BKN025
     FM221600 13008KT P6SM FEW025 BKN060
     FM230100 09006KT P6SM BKN070 BKN200=



000
FTUS44 KEWX 221100
TAFAUS
TAF
KAUS 221136Z 2212/2318 VRB04KT P6SM SCT025 BKN150
     FM221800 09006KT P6SM SCT040 BKN150
     FM230700 VRB03KT P6SM FEW035 BKN120=



000
FTUS44 KEWX 220500
TAFAUS
TAF
KAUS 220534Z 2206/2312 VRB03KT P6SM FEW025 BKN200
     FM221800 09006KT P6SM FEW040 BKN150=



000
FTUS44 KEWX 220500
TAFSAT
TAF
KSAT 220534Z 2206/2312 VRB03KT P6SM FEW025 BKN200
     FM221800 11007KT P6SM FEW040 BKN150=



000
FTUS44 KEWX 220500
TAFDRT
TAF
KDRT 220534Z 2206/2306 12005KT 5SM BR BKN050
     FM221200 11005KT P6SM BKN025 OVC120
     FM221600 14008KT P6SM FEW025 BKN040=



000
FTUS44 KEWX 220500
TAFSAT
TAF
KSAT 220534Z 2206/2312 VRB03KT P6SM FEW025 BKN200
     FM221800 11007KT P6SM FEW040 BKN150=



000
FTUS44 KEWX 220500
TAFDRT
TAF
KDRT 220534Z 2206/2306 12005KT 5SM BR BKN050
     FM221200 11005KT P6SM BKN025 OVC120
     FM221600 14008KT P6SM FEW025 BKN040=



000
FTUS44 KEWX 220500
TAFAUS
TAF
KAUS 220534Z 2206/2312 VRB03KT P6SM FEW025 BKN200
     FM221800 09006KT P6SM FEW040 BKN150=



000
FTUS44 KEWX 212300
TAFAUS
TAF
KAUS 212320Z 2200/2306 06008KT P6SM FEW050 SCT200
     FM220300 VRB03KT P6SM FEW025 BKN200
     FM221800 09007KT P6SM FEW040 BKN150=



000
FTUS44 KEWX 212300
TAFDRT
TAF
KDRT 212320Z 2200/2224 12005KT P6SM BKN050
     FM221100 11005KT P6SM BKN025 OVC120
     FM221600 14008KT P6SM FEW025 BKN040=



000
FTUS44 KEWX 212300
TAFSAT
TAF
KSAT 212320Z 2200/2306 09008KT P6SM FEW050 SCT200
     FM220300 VRB03KT P6SM FEW025 BKN200
     FM221800 11007KT P6SM FEW040 BKN150=



000
FTUS44 KEWX 212300
TAFAUS
TAF
KAUS 212320Z 2200/2306 06008KT P6SM FEW050 SCT200
     FM220300 VRB03KT P6SM FEW025 BKN200
     FM221800 09007KT P6SM FEW040 BKN150=



000
FTUS44 KEWX 212300
TAFDRT
TAF
KDRT 212320Z 2200/2224 12005KT P6SM BKN050
     FM221100 11005KT P6SM BKN025 OVC120
     FM221600 14008KT P6SM FEW025 BKN040=



000
FTUS44 KEWX 212300
TAFSAT
TAF
KSAT 212320Z 2200/2306 09008KT P6SM FEW050 SCT200
     FM220300 VRB03KT P6SM FEW025 BKN200
     FM221800 11007KT P6SM FEW040 BKN150=



000
FTUS44 KEWX 212000 AAA
TAFDRT
TAF AMD
KDRT 212038Z 2121/2218 12010KT P6SM BKN050
     FM221000 11005KT P6SM BKN025 OVC120
     FM221400 11008KT P6SM FEW025 BKN040=



000
FTUS44 KEWX 211700
TAFAUS
TAF
KAUS 211725Z 2118/2224 07008KT P6SM FEW035 SCT200
     FM220300 VRB04KT P6SM FEW025 BKN200
     FM221800 10007KT P6SM FEW035 BKN150=



000
FTUS44 KEWX 211700
TAFDRT
TAF
KDRT 211725Z 2118/2218 12010KT P6SM BKN090
     FM221000 11005KT P6SM BKN025 OVC120
     FM221400 11008KT P6SM FEW025 BKN040=



000
FTUS44 KEWX 211700
TAFSAT
TAF
KSAT 211725Z 2118/2224 09007KT P6SM FEW200
     FM220300 VRB04KT P6SM FEW025 BKN200
     FM221800 10008KT P6SM FEW040 BKN150=



000
FTUS44 KEWX 211500 AAB
TAFDRT
TAF AMD
KDRT 211542Z 2116/2212 08009KT P6SM SCT025 BKN050
     FM211800 13010KT P6SM BKN050
     FM220100 11005KT P6SM BKN100=



000
FTUS44 KEWX 211500 AAB
TAFDRT
TAF AMD
KDRT 211542Z 2116/2212 08009KT P6SM SCT025 BKN050
     FM211800 13010KT P6SM BKN050
     FM220100 11005KT P6SM BKN100=



000
FTUS44 KEWX 211300 AAA
TAFDRT
TAF AMD
KDRT 211326Z 2113/2212 08005KT P6SM BKN025
     FM211800 13010KT P6SM BKN050
     FM220100 11005KT P6SM BKN100=



000
FTUS44 KEWX 211300 AAA
TAFAUS
TAF AMD
KAUS 211319Z 2113/2218 VRB03KT P6SM SCT200
     FM211500 08005KT P6SM FEW040=



000
FTUS44 KEWX 211200 AAA
TAFDRT
TAF AMD
KDRT 211244Z 2113/2212 08005KT P6SM BKN015
     FM211500 08005KT P6SM BKN025
     FM211800 13010KT P6SM BKN050
     FM220100 11005KT P6SM BKN100=



000
FTUS44 KEWX 211100
TAFDRT
TAF
KDRT 211122Z 2112/2212 08005KT P6SM BKN025
     FM211800 13010KT P6SM BKN050
     FM220100 11005KT P6SM BKN100=



000
FTUS44 KEWX 211100
TAFSAT
TAF
KSAT 211122Z 2112/2218 VRB03KT P6SM SCT250
     FM211500 09005KT P6SM SCT050=



000
FTUS44 KEWX 211100
TAFAUS
TAF
KAUS 211122Z 2112/2218 VRB03KT P6SM SCT200
     FM211230 VRB03KT 4SM BR FEW250
     FM211500 08005KT P6SM FEW040=



000
FTUS44 KEWX 211100
TAFSAT
TAF
KSAT 211122Z 2112/2218 VRB03KT P6SM SCT250
     FM211500 09005KT P6SM SCT050=



000
FTUS44 KEWX 211100
TAFDRT
TAF
KDRT 211122Z 2112/2212 08005KT P6SM BKN025
     FM211800 13010KT P6SM BKN050
     FM220100 11005KT P6SM BKN100=



000
FTUS44 KEWX 211100
TAFAUS
TAF
KAUS 211122Z 2112/2218 VRB03KT P6SM SCT200
     FM211230 VRB03KT 4SM BR FEW250
     FM211500 08005KT P6SM FEW040=



000
FTUS44 KEWX 210500
TAFDRT
TAF
KDRT 210523Z 2106/2206 11005KT P6SM BKN035 OVC060
     FM211100 10006KT P6SM BKN025
     FM211800 13011KT P6SM BKN040
     FM220100 12007KT P6SM BKN100=



000
FTUS44 KEWX 210500
TAFAUS
TAF
KAUS 210523Z 2106/2212 VRB03KT P6SM FEW030 SCT200
     FM211100 VRB03KT 6SM BR FEW250
     FM211500 08006KT P6SM FEW040 SCT250=



000
FTUS44 KEWX 210500
TAFSAT
TAF
KSAT 210523Z 2106/2212 06005KT P6SM FEW050 BKN250
     FM211100 05004KT 6SM BR SCT015
     FM211500 09006KT P6SM FEW040 SCT050=



000
FTUS44 KEWX 202300
TAFAUS
TAF
KAUS 202323Z 2100/2206 09006KT P6SM FEW030 SCT200
     FM211000 VRB03KT 6SM BR SCT030
     FM211500 08007KT P6SM FEW040 SCT050=



000
FTUS44 KEWX 202300
TAFDRT
TAF
KDRT 202323Z 2100/2124 13008KT P6SM BKN035 OVC060
     FM211000 10006KT P6SM OVC015
     FM211800 13010KT P6SM BKN035=



000
FTUS44 KEWX 202300
TAFSAT
TAF
KSAT 202323Z 2100/2206 09008KT P6SM FEW050
     FM211000 05004KT 5SM BR SCT015
     FM211500 06006KT P6SM SCT040=



000
FTUS44 KEWX 201700
TAFDRT
TAF
KDRT 201726Z 2018/2118 11009KT P6SM SCT025 BKN040
     FM202000 13008KT P6SM BKN035 OVC060
     FM210800 10006KT P6SM OVC015=



000
FTUS44 KEWX 201700
TAFAUS
TAF
KAUS 201726Z 2018/2124 06007KT P6SM FEW030 SCT200
     FM210600 VRB03KT 6SM BR SCT035 BKN050
     FM211700 05007KT P6SM FEW030 SCT050=



000
FTUS44 KEWX 201700
TAFSAT
TAF
KSAT 201726Z 2018/2124 07008KT P6SM BKN040=



000
FTUS44 KEWX 201600 AAA
TAFDRT
TAF AMD
KDRT 201604Z 2016/2112 11009KT P6SM BKN015 OVC060
     FM202000 13008KT P6SM BKN035 OVC060
     FM211000 10006KT P6SM OVC015=



000
FTUS44 KEWX 201400 AAA
TAFSAT
TAF AMD
KSAT 201402Z 2014/2118 04005KT P6SM FEW060 BKN250
     FM201700 10005KT P6SM BKN040=



    US Dept of Commerce
    National Oceanic and Atmospheric Administration
    National Weather Service
    1325 East West Highway
    Silver Spring, MD 20910
    Page Author: NWS Internet Services Team
Disclaimer
Information Quality
Credits
Glossary
Privacy Policy
Freedom of Information Act (FOIA)
About Us
Career Opportunities